sensor_id;sensor_type;location;lat;lon;timestamp;P1;durP1;ratioP1;P2;durP2;ratioP2
4311;SDS011;2169;49.086;9.284;2022-09-24T00:01:43;3.23;;;3.03;;
4311;SDS011;2169;49.086;9.284;2022-09-24T00:04:11;7.13;;;1.93;;
4311;SDS011;2169;49.086;9.284;2022-09-24T00:06:40;2.90;;;2.70;;
4311;SDS011;2169;49.086;9.284;2022-09-24T00:09:08;4.10;;;2.67;;
4311;SDS011;2169;49.086;9.284;2022-09-24T00:11:37;3.90;;;3.07;;
4311;SDS011;2169;49.086;9.284;2022-09-24T00:14:05;3.03;;;2.80;;
4311;SDS011;2169;49.086;9.284;2022-09-24T00:16:32;2.80;;;2.43;;
4311;SDS011;2169;49.086;9.284;2022-09-24T00:19:00;3.03;;;2.93;;
4311;SDS011;2169;49.086;9.284;2022-09-24T00:21:28;2.40;;;2.30;;
4311;SDS011;2169;49.086;9.284;2022-09-24T00:23:57;3.07;;;2.00;;
4311;SDS011;2169;49.086;9.284;2022-09-24T00:26:26;2.50;;;1.90;;
4311;SDS011;2169;49.086;9.284;2022-09-24T00:29:13;10.30;;;2.63;;
4311;SDS011;2169;49.086;9.284;2022-09-24T00:31:42;3.13;;;2.77;;
4311;SDS011;2169;49.086;9.284;2022-09-24T00:34:09;3.00;;;2.67;;
4311;SDS011;2169;49.086;9.284;2022-09-24T00:36:36;2.97;;;2.87;;
4311;SDS011;2169;49.086;9.284;2022-09-24T00:39:03;2.40;;;2.30;;
4311;SDS011;2169;49.086;9.284;2022-09-24T00:41:31;5.70;;;2.40;;
4311;SDS011;2169;49.086;9.284;2022-09-24T00:43:59;6.50;;;3.20;;
4311;SDS011;2169;49.086;9.284;2022-09-24T00:46:29;2.83;;;2.67;;
4311;SDS011;2169;49.086;9.284;2022-09-24T00:49:03;3.50;;;2.53;;
4311;SDS011;2169;49.086;9.284;2022-09-24T00:51:36;5.70;;;2.17;;
4311;SDS011;2169;49.086;9.284;2022-09-24T00:54:05;6.23;;;4.27;;
4311;SDS011;2169;49.086;9.284;2022-09-24T00:56:38;2.90;;;2.70;;
4311;SDS011;2169;49.086;9.284;2022-09-24T00:59:06;3.47;;;3.17;;
4311;SDS011;2169;49.086;9.284;2022-09-24T01:01:37;5.80;;;2.97;;
4311;SDS011;2169;49.086;9.284;2022-09-24T01:04:04;2.27;;;2.10;;
4311;SDS011;2169;49.086;9.284;2022-09-24T01:06:32;6.50;;;2.57;;
4311;SDS011;2169;49.086;9.284;2022-09-24T01:09:00;3.43;;;2.77;;
4311;SDS011;2169;49.086;9.284;2022-09-24T01:11:31;3.30;;;2.83;;
4311;SDS011;2169;49.086;9.284;2022-09-24T01:14:12;3.20;;;2.97;;
4311;SDS011;2169;49.086;9.284;2022-09-24T01:17:04;3.50;;;3.20;;
4311;SDS011;2169;49.086;9.284;2022-09-24T01:19:45;14.23;;;2.83;;
4311;SDS011;2169;49.086;9.284;2022-09-24T01:22:41;3.63;;;3.17;;
4311;SDS011;2169;49.086;9.284;2022-09-24T01:25:15;3.60;;;2.73;;
4311;SDS011;2169;49.086;9.284;2022-09-24T01:27:57;3.63;;;3.43;;
4311;SDS011;2169;49.086;9.284;2022-09-24T01:30:35;3.00;;;2.70;;
4311;SDS011;2169;49.086;9.284;2022-09-24T01:33:06;3.73;;;2.90;;
4311;SDS011;2169;49.086;9.284;2022-09-24T01:35:38;3.30;;;3.00;;
4311;SDS011;2169;49.086;9.284;2022-09-24T01:38:15;6.17;;;3.00;;
4311;SDS011;2169;49.086;9.284;2022-09-24T01:40:45;4.63;;;2.50;;
4311;SDS011;2169;49.086;9.284;2022-09-24T01:43:12;3.47;;;3.27;;
4311;SDS011;2169;49.086;9.284;2022-09-24T01:45:42;3.53;;;3.07;;
4311;SDS011;2169;49.086;9.284;2022-09-24T01:48:10;3.00;;;2.43;;
4311;SDS011;2169;49.086;9.284;2022-09-24T01:50:38;4.67;;;3.10;;
4311;SDS011;2169;49.086;9.284;2022-09-24T01:53:09;2.80;;;2.60;;
4311;SDS011;2169;49.086;9.284;2022-09-24T01:55:42;2.50;;;2.37;;
4311;SDS011;2169;49.086;9.284;2022-09-24T01:58:14;3.90;;;3.03;;
4311;SDS011;2169;49.086;9.284;2022-09-24T02:00:47;3.43;;;3.23;;
4311;SDS011;2169;49.086;9.284;2022-09-24T02:03:19;2.67;;;2.47;;
4311;SDS011;2169;49.086;9.284;2022-09-24T02:05:52;4.70;;;2.10;;
4311;SDS011;2169;49.086;9.284;2022-09-24T02:08:23;3.23;;;2.83;;
4311;SDS011;2169;49.086;9.284;2022-09-24T02:10:55;3.47;;;3.17;;
4311;SDS011;2169;49.086;9.284;2022-09-24T02:13:28;3.47;;;2.50;;
4311;SDS011;2169;49.086;9.284;2022-09-24T02:16:01;4.17;;;3.20;;
4311;SDS011;2169;49.086;9.284;2022-09-24T02:18:30;3.67;;;3.07;;
4311;SDS011;2169;49.086;9.284;2022-09-24T02:21:00;6.93;;;3.40;;
4311;SDS011;2169;49.086;9.284;2022-09-24T02:23:32;2.13;;;2.03;;
4311;SDS011;2169;49.086;9.284;2022-09-24T02:26:02;3.77;;;3.17;;
4311;SDS011;2169;49.086;9.284;2022-09-24T02:28:30;3.23;;;2.90;;
4311;SDS011;2169;49.086;9.284;2022-09-24T02:30:59;3.43;;;2.50;;
4311;SDS011;2169;49.086;9.284;2022-09-24T02:33:31;4.83;;;3.23;;
4311;SDS011;2169;49.086;9.284;2022-09-24T02:36:19;3.03;;;2.63;;
4311;SDS011;2169;49.086;9.284;2022-09-24T02:38:49;2.50;;;2.30;;
4311;SDS011;2169;49.086;9.284;2022-09-24T02:41:16;4.60;;;3.00;;
4311;SDS011;2169;49.086;9.284;2022-09-24T02:43:47;3.53;;;2.80;;
4311;SDS011;2169;49.086;9.284;2022-09-24T02:46:16;3.53;;;2.60;;
4311;SDS011;2169;49.086;9.284;2022-09-24T02:48:42;4.70;;;1.97;;
4311;SDS011;2169;49.086;9.284;2022-09-24T02:51:09;3.63;;;3.40;;
4311;SDS011;2169;49.086;9.284;2022-09-24T02:53:36;2.23;;;2.03;;
4311;SDS011;2169;49.086;9.284;2022-09-24T02:56:03;3.47;;;3.20;;
4311;SDS011;2169;49.086;9.284;2022-09-24T02:58:30;2.47;;;2.17;;
4311;SDS011;2169;49.086;9.284;2022-09-24T03:00:57;5.47;;;2.50;;
4311;SDS011;2169;49.086;9.284;2022-09-24T03:03:25;5.27;;;3.20;;
4311;SDS011;2169;49.086;9.284;2022-09-24T03:05:52;2.80;;;2.70;;
4311;SDS011;2169;49.086;9.284;2022-09-24T03:08:19;2.67;;;2.50;;
4311;SDS011;2169;49.086;9.284;2022-09-24T03:10:48;3.13;;;2.97;;
4311;SDS011;2169;49.086;9.284;2022-09-24T03:13:15;5.60;;;2.30;;
4311;SDS011;2169;49.086;9.284;2022-09-24T03:15:43;1.60;;;1.50;;
4311;SDS011;2169;49.086;9.284;2022-09-24T03:18:10;2.03;;;1.93;;
4311;SDS011;2169;49.086;9.284;2022-09-24T03:20:38;8.53;;;2.60;;
4311;SDS011;2169;49.086;9.284;2022-09-24T03:23:05;2.20;;;2.10;;
4311;SDS011;2169;49.086;9.284;2022-09-24T03:25:32;3.37;;;3.17;;
4311;SDS011;2169;49.086;9.284;2022-09-24T03:27:59;2.77;;;2.63;;
4311;SDS011;2169;49.086;9.284;2022-09-24T03:30:26;2.97;;;2.77;;
4311;SDS011;2169;49.086;9.284;2022-09-24T03:33:10;3.17;;;2.47;;
4311;SDS011;2169;49.086;9.284;2022-09-24T03:35:39;5.90;;;2.77;;
4311;SDS011;2169;49.086;9.284;2022-09-24T03:38:06;2.20;;;2.10;;
4311;SDS011;2169;49.086;9.284;2022-09-24T03:40:33;2.43;;;2.23;;
4311;SDS011;2169;49.086;9.284;2022-09-24T03:42:59;3.23;;;2.90;;
4311;SDS011;2169;49.086;9.284;2022-09-24T03:45:26;3.80;;;3.50;;
4311;SDS011;2169;49.086;9.284;2022-09-24T03:47:53;2.40;;;2.30;;
4311;SDS011;2169;49.086;9.284;2022-09-24T03:50:20;2.37;;;2.17;;
4311;SDS011;2169;49.086;9.284;2022-09-24T03:52:49;3.47;;;1.70;;
4311;SDS011;2169;49.086;9.284;2022-09-24T03:55:15;2.80;;;2.60;;
4311;SDS011;2169;49.086;9.284;2022-09-24T03:57:42;5.60;;;2.60;;
4311;SDS011;2169;49.086;9.284;2022-09-24T04:00:10;4.27;;;1.90;;
4311;SDS011;2169;49.086;9.284;2022-09-24T04:02:37;2.10;;;1.97;;
4311;SDS011;2169;49.086;9.284;2022-09-24T04:05:04;4.03;;;3.73;;
4311;SDS011;2169;49.086;9.284;2022-09-24T04:07:31;6.60;;;3.10;;
4311;SDS011;2169;49.086;9.284;2022-09-24T04:09:59;3.43;;;3.23;;
4311;SDS011;2169;49.086;9.284;2022-09-24T04:12:27;3.23;;;3.00;;
4311;SDS011;2169;49.086;9.284;2022-09-24T04:14:53;2.30;;;2.17;;
4311;SDS011;2169;49.086;9.284;2022-09-24T04:17:20;2.40;;;2.20;;
4311;SDS011;2169;49.086;9.284;2022-09-24T04:19:47;7.50;;;2.33;;
4311;SDS011;2169;49.086;9.284;2022-09-24T04:22:15;3.67;;;2.50;;
4311;SDS011;2169;49.086;9.284;2022-09-24T04:24:42;1.97;;;1.87;;
4311;SDS011;2169;49.086;9.284;2022-09-24T04:27:10;2.90;;;2.80;;
4311;SDS011;2169;49.086;9.284;2022-09-24T04:29:37;2.07;;;1.97;;
4311;SDS011;2169;49.086;9.284;2022-09-24T04:32:04;1.93;;;1.83;;
4311;SDS011;2169;49.086;9.284;2022-09-24T04:34:30;2.23;;;2.10;;
4311;SDS011;2169;49.086;9.284;2022-09-24T04:36:57;2.53;;;2.33;;
4311;SDS011;2169;49.086;9.284;2022-09-24T04:39:24;6.13;;;2.83;;
4311;SDS011;2169;49.086;9.284;2022-09-24T04:41:51;2.87;;;2.70;;
4311;SDS011;2169;49.086;9.284;2022-09-24T04:44:20;2.40;;;2.30;;
4311;SDS011;2169;49.086;9.284;2022-09-24T04:46:47;3.70;;;2.90;;
4311;SDS011;2169;49.086;9.284;2022-09-24T04:49:14;3.17;;;2.87;;
4311;SDS011;2169;49.086;9.284;2022-09-24T04:51:41;2.40;;;1.93;;
4311;SDS011;2169;49.086;9.284;2022-09-24T04:54:08;14.93;;;3.13;;
4311;SDS011;2169;49.086;9.284;2022-09-24T04:56:36;4.63;;;2.50;;
4311;SDS011;2169;49.086;9.284;2022-09-24T04:59:08;2.57;;;2.37;;
4311;SDS011;2169;49.086;9.284;2022-09-24T05:01:36;2.90;;;2.70;;
4311;SDS011;2169;49.086;9.284;2022-09-24T05:04:02;3.83;;;2.10;;
4311;SDS011;2169;49.086;9.284;2022-09-24T05:06:29;3.42;;;2.20;;
4311;SDS011;2169;49.086;9.284;2022-09-24T05:08:58;2.77;;;2.60;;
4311;SDS011;2169;49.086;9.284;2022-09-24T05:11:25;3.83;;;3.07;;
4311;SDS011;2169;49.086;9.284;2022-09-24T05:13:51;2.77;;;2.53;;
4311;SDS011;2169;49.086;9.284;2022-09-24T05:16:18;3.70;;;3.47;;
4311;SDS011;2169;49.086;9.284;2022-09-24T05:18:46;3.73;;;2.73;;
4311;SDS011;2169;49.086;9.284;2022-09-24T05:21:13;2.90;;;2.30;;
4311;SDS011;2169;49.086;9.284;2022-09-24T05:23:40;3.77;;;3.00;;
4311;SDS011;2169;49.086;9.284;2022-09-24T05:26:07;2.30;;;2.20;;
4311;SDS011;2169;49.086;9.284;2022-09-24T05:28:51;5.23;;;3.50;;
4311;SDS011;2169;49.086;9.284;2022-09-24T05:31:18;3.07;;;2.87;;
4311;SDS011;2169;49.086;9.284;2022-09-24T05:33:46;3.10;;;2.90;;
4311;SDS011;2169;49.086;9.284;2022-09-24T05:36:13;4.23;;;3.10;;
4311;SDS011;2169;49.086;9.284;2022-09-24T05:38:40;2.90;;;2.67;;
4311;SDS011;2169;49.086;9.284;2022-09-24T05:41:06;11.60;;;3.10;;
4311;SDS011;2169;49.086;9.284;2022-09-24T05:43:33;3.37;;;3.10;;
4311;SDS011;2169;49.086;9.284;2022-09-24T05:46:00;5.10;;;2.63;;
4311;SDS011;2169;49.086;9.284;2022-09-24T05:48:26;4.10;;;2.30;;
4311;SDS011;2169;49.086;9.284;2022-09-24T05:50:55;3.97;;;3.47;;
4311;SDS011;2169;49.086;9.284;2022-09-24T05:53:21;3.90;;;3.60;;
4311;SDS011;2169;49.086;9.284;2022-09-24T05:55:48;3.93;;;3.47;;
4311;SDS011;2169;49.086;9.284;2022-09-24T05:58:15;3.90;;;3.60;;
4311;SDS011;2169;49.086;9.284;2022-09-24T06:00:42;2.43;;;2.33;;
4311;SDS011;2169;49.086;9.284;2022-09-24T06:03:10;4.00;;;3.63;;
4311;SDS011;2169;49.086;9.284;2022-09-24T06:05:37;4.00;;;3.47;;
4311;SDS011;2169;49.086;9.284;2022-09-24T06:08:09;3.03;;;2.93;;
4311;SDS011;2169;49.086;9.284;2022-09-24T06:10:36;5.00;;;3.53;;
4311;SDS011;2169;49.086;9.284;2022-09-24T06:13:03;7.70;;;5.93;;
4311;SDS011;2169;49.086;9.284;2022-09-24T06:15:29;3.73;;;3.53;;
4311;SDS011;2169;49.086;9.284;2022-09-24T06:17:56;5.53;;;4.83;;
4311;SDS011;2169;49.086;9.284;2022-09-24T06:20:23;5.43;;;4.87;;
4311;SDS011;2169;49.086;9.284;2022-09-24T06:22:53;6.20;;;5.63;;
4311;SDS011;2169;49.086;9.284;2022-09-24T06:25:22;21.63;;;4.83;;
4311;SDS011;2169;49.086;9.284;2022-09-24T06:27:52;5.43;;;5.03;;
4311;SDS011;2169;49.086;9.284;2022-09-24T06:30:24;9.70;;;3.97;;
4311;SDS011;2169;49.086;9.284;2022-09-24T06:32:51;12.73;;;5.53;;
4311;SDS011;2169;49.086;9.284;2022-09-24T06:35:18;9.87;;;8.90;;
4311;SDS011;2169;49.086;9.284;2022-09-24T06:37:45;8.50;;;8.00;;
4311;SDS011;2169;49.086;9.284;2022-09-24T06:40:13;6.20;;;5.67;;
4311;SDS011;2169;49.086;9.284;2022-09-24T06:42:41;8.93;;;8.13;;
4311;SDS011;2169;49.086;9.284;2022-09-24T06:45:08;10.43;;;6.97;;
4311;SDS011;2169;49.086;9.284;2022-09-24T06:47:36;7.23;;;6.30;;
4311;SDS011;2169;49.086;9.284;2022-09-24T06:50:03;8.30;;;6.20;;
4311;SDS011;2169;49.086;9.284;2022-09-24T06:52:31;9.53;;;5.63;;
4311;SDS011;2169;49.086;9.284;2022-09-24T06:54:58;5.10;;;4.70;;
4311;SDS011;2169;49.086;9.284;2022-09-24T06:57:24;8.43;;;4.70;;
4311;SDS011;2169;49.086;9.284;2022-09-24T06:59:53;10.00;;;6.67;;
4311;SDS011;2169;49.086;9.284;2022-09-24T07:02:19;11.87;;;5.50;;
4311;SDS011;2169;49.086;9.284;2022-09-24T07:04:50;8.90;;;3.40;;
4311;SDS011;2169;49.086;9.284;2022-09-24T07:07:17;4.50;;;4.10;;
4311;SDS011;2169;49.086;9.284;2022-09-24T07:09:57;6.67;;;5.77;;
4311;SDS011;2169;49.086;9.284;2022-09-24T07:12:24;5.90;;;4.40;;
4311;SDS011;2169;49.086;9.284;2022-09-24T07:14:55;11.37;;;4.30;;
4311;SDS011;2169;49.086;9.284;2022-09-24T07:17:22;6.53;;;5.30;;
4311;SDS011;2169;49.086;9.284;2022-09-24T07:19:49;5.37;;;4.87;;
4311;SDS011;2169;49.086;9.284;2022-09-24T07:22:16;7.30;;;5.10;;
4311;SDS011;2169;49.086;9.284;2022-09-24T07:24:43;8.37;;;4.50;;
4311;SDS011;2169;49.086;9.284;2022-09-24T07:27:10;6.37;;;5.17;;
4311;SDS011;2169;49.086;9.284;2022-09-24T07:29:37;5.47;;;4.93;;
4311;SDS011;2169;49.086;9.284;2022-09-24T07:32:05;6.40;;;5.70;;
4311;SDS011;2169;49.086;9.284;2022-09-24T07:34:33;7.13;;;5.33;;
4311;SDS011;2169;49.086;9.284;2022-09-24T07:36:59;5.87;;;5.27;;
4311;SDS011;2169;49.086;9.284;2022-09-24T07:39:26;7.57;;;6.60;;
4311;SDS011;2169;49.086;9.284;2022-09-24T07:41:53;9.40;;;6.67;;
4311;SDS011;2169;49.086;9.284;2022-09-24T07:44:20;4.90;;;4.70;;
4311;SDS011;2169;49.086;9.284;2022-09-24T07:46:47;6.97;;;6.30;;
4311;SDS011;2169;49.086;9.284;2022-09-24T07:49:16;9.33;;;8.50;;
4311;SDS011;2169;49.086;9.284;2022-09-24T07:51:43;7.77;;;5.20;;
4311;SDS011;2169;49.086;9.284;2022-09-24T07:54:10;11.90;;;5.50;;
4311;SDS011;2169;49.086;9.284;2022-09-24T07:56:37;6.07;;;5.27;;
4311;SDS011;2169;49.086;9.284;2022-09-24T07:59:04;10.13;;;7.87;;
4311;SDS011;2169;49.086;9.284;2022-09-24T08:01:32;6.70;;;5.60;;
4311;SDS011;2169;49.086;9.284;2022-09-24T08:03:59;7.90;;;6.10;;
4311;SDS011;2169;49.086;9.284;2022-09-24T08:06:29;21.80;;;10.33;;
4311;SDS011;2169;49.086;9.284;2022-09-24T08:08:57;7.97;;;6.83;;
4311;SDS011;2169;49.086;9.284;2022-09-24T08:11:24;7.40;;;5.70;;
4311;SDS011;2169;49.086;9.284;2022-09-24T08:13:51;5.73;;;5.27;;
4311;SDS011;2169;49.086;9.284;2022-09-24T08:16:18;10.20;;;7.13;;
4311;SDS011;2169;49.086;9.284;2022-09-24T08:18:46;7.87;;;7.07;;
4311;SDS011;2169;49.086;9.284;2022-09-24T08:21:13;6.07;;;5.57;;
4311;SDS011;2169;49.086;9.284;2022-09-24T08:23:42;6.97;;;6.10;;
4311;SDS011;2169;49.086;9.284;2022-09-24T08:26:09;5.97;;;5.47;;
4311;SDS011;2169;49.086;9.284;2022-09-24T08:28:37;17.60;;;5.63;;
4311;SDS011;2169;49.086;9.284;2022-09-24T08:31:06;5.87;;;4.60;;
4311;SDS011;2169;49.086;9.284;2022-09-24T08:33:34;9.87;;;6.77;;
4311;SDS011;2169;49.086;9.284;2022-09-24T08:36:02;7.43;;;6.57;;
4311;SDS011;2169;49.086;9.284;2022-09-24T08:38:30;6.80;;;6.20;;
4311;SDS011;2169;49.086;9.284;2022-09-24T08:41:01;6.53;;;5.90;;
4311;SDS011;2169;49.086;9.284;2022-09-24T08:43:41;8.93;;;7.03;;
4311;SDS011;2169;49.086;9.284;2022-09-24T08:46:14;10.83;;;8.10;;
4311;SDS011;2169;49.086;9.284;2022-09-24T08:49:02;8.80;;;7.50;;
4311;SDS011;2169;49.086;9.284;2022-09-24T08:51:32;8.13;;;7.20;;
4311;SDS011;2169;49.086;9.284;2022-09-24T08:54:03;7.90;;;5.80;;
4311;SDS011;2169;49.086;9.284;2022-09-24T08:56:36;10.13;;;8.93;;
4311;SDS011;2169;49.086;9.284;2022-09-24T08:59:09;8.80;;;7.60;;
4311;SDS011;2169;49.086;9.284;2022-09-24T09:01:48;8.87;;;7.00;;
4311;SDS011;2169;49.086;9.284;2022-09-24T09:04:22;9.97;;;7.70;;
4311;SDS011;2169;49.086;9.284;2022-09-24T09:07:02;11.27;;;8.20;;
4311;SDS011;2169;49.086;9.284;2022-09-24T09:09:42;9.53;;;7.60;;
4311;SDS011;2169;49.086;9.284;2022-09-24T09:12:14;13.50;;;8.50;;
4311;SDS011;2169;49.086;9.284;2022-09-24T09:14:45;8.00;;;6.77;;
4311;SDS011;2169;49.086;9.284;2022-09-24T09:17:23;8.27;;;6.50;;
4311;SDS011;2169;49.086;9.284;2022-09-24T09:19:56;9.43;;;7.70;;
4311;SDS011;2169;49.086;9.284;2022-09-24T09:22:27;11.27;;;8.37;;
4311;SDS011;2169;49.086;9.284;2022-09-24T09:24:59;15.00;;;9.97;;
4311;SDS011;2169;49.086;9.284;2022-09-24T09:27:30;10.00;;;7.37;;
4311;SDS011;2169;49.086;9.284;2022-09-24T09:29:57;8.27;;;7.20;;
4311;SDS011;2169;49.086;9.284;2022-09-24T09:32:35;12.73;;;8.00;;
4311;SDS011;2169;49.086;9.284;2022-09-24T09:35:20;11.47;;;8.60;;
4311;SDS011;2169;49.086;9.284;2022-09-24T09:38:04;9.00;;;8.10;;
4311;SDS011;2169;49.086;9.284;2022-09-24T09:40:45;14.43;;;6.80;;
4311;SDS011;2169;49.086;9.284;2022-09-24T09:43:26;13.73;;;8.80;;
4311;SDS011;2169;49.086;9.284;2022-09-24T09:46:00;8.60;;;7.07;;
4311;SDS011;2169;49.086;9.284;2022-09-24T09:48:42;11.90;;;7.37;;
4311;SDS011;2169;49.086;9.284;2022-09-24T09:51:16;11.33;;;8.20;;
4311;SDS011;2169;49.086;9.284;2022-09-24T09:53:56;9.07;;;7.13;;
4311;SDS011;2169;49.086;9.284;2022-09-24T09:56:25;12.37;;;7.50;;
4311;SDS011;2169;49.086;9.284;2022-09-24T09:59:03;10.37;;;7.27;;
4311;SDS011;2169;49.086;9.284;2022-09-24T10:01:34;11.43;;;8.60;;
4311;SDS011;2169;49.086;9.284;2022-09-24T10:04:06;13.37;;;8.80;;
4311;SDS011;2169;49.086;9.284;2022-09-24T10:07:05;11.13;;;7.40;;
4311;SDS011;2169;49.086;9.284;2022-09-24T10:09:36;9.40;;;7.77;;
4311;SDS011;2169;49.086;9.284;2022-09-24T10:12:11;22.43;;;8.40;;
4311;SDS011;2169;49.086;9.284;2022-09-24T10:14:59;16.13;;;8.30;;
4311;SDS011;2169;49.086;9.284;2022-09-24T10:17:33;12.60;;;10.00;;
4311;SDS011;2169;49.086;9.284;2022-09-24T10:20:06;12.47;;;8.50;;
4311;SDS011;2169;49.086;9.284;2022-09-24T10:22:35;8.30;;;7.10;;
4311;SDS011;2169;49.086;9.284;2022-09-24T10:25:18;9.70;;;8.70;;
4311;SDS011;2169;49.086;9.284;2022-09-24T10:27:50;11.03;;;8.33;;
4311;SDS011;2169;49.086;9.284;2022-09-24T10:30:22;8.87;;;7.93;;
4311;SDS011;2169;49.086;9.284;2022-09-24T10:33:01;13.93;;;7.20;;
4311;SDS011;2169;49.086;9.284;2022-09-24T10:35:34;8.60;;;7.63;;
4311;SDS011;2169;49.086;9.284;2022-09-24T10:38:15;12.10;;;8.70;;
4311;SDS011;2169;49.086;9.284;2022-09-24T10:40:49;11.43;;;8.37;;
4311;SDS011;2169;49.086;9.284;2022-09-24T10:43:21;13.33;;;7.97;;
4311;SDS011;2169;49.086;9.284;2022-09-24T10:48:59;9.03;;;8.13;;
4311;SDS011;2169;49.086;9.284;2022-09-24T10:51:37;10.47;;;8.17;;
4311;SDS011;2169;49.086;9.284;2022-09-24T10:54:30;11.60;;;9.70;;
4311;SDS011;2169;49.086;9.284;2022-09-24T10:57:23;11.40;;;7.60;;
4311;SDS011;2169;49.086;9.284;2022-09-24T11:00:06;8.67;;;7.47;;
4311;SDS011;2169;49.086;9.284;2022-09-24T11:02:53;15.47;;;7.13;;
4311;SDS011;2169;49.086;9.284;2022-09-24T11:05:44;16.63;;;8.63;;
4311;SDS011;2169;49.086;9.284;2022-09-24T11:08:37;13.13;;;8.90;;
4311;SDS011;2169;49.086;9.284;2022-09-24T11:11:23;8.90;;;7.17;;
4311;SDS011;2169;49.086;9.284;2022-09-24T11:14:08;11.30;;;8.77;;
4311;SDS011;2169;49.086;9.284;2022-09-24T11:16:58;11.40;;;8.00;;
4311;SDS011;2169;49.086;9.284;2022-09-24T11:25:51;8.53;;;7.73;;
4311;SDS011;2169;49.086;9.284;2022-09-24T11:31:40;9.57;;;7.20;;
4311;SDS011;2169;49.086;9.284;2022-09-24T11:34:19;12.83;;;7.97;;
4311;SDS011;2169;49.086;9.284;2022-09-24T11:37:09;9.00;;;7.63;;
4311;SDS011;2169;49.086;9.284;2022-09-24T11:39:54;9.07;;;8.17;;
4311;SDS011;2169;49.086;9.284;2022-09-24T11:42:29;12.93;;;9.00;;
4311;SDS011;2169;49.086;9.284;2022-09-24T11:45:14;8.67;;;7.53;;
4311;SDS011;2169;49.086;9.284;2022-09-24T11:50:48;10.13;;;7.80;;
4311;SDS011;2169;49.086;9.284;2022-09-24T11:53:38;7.60;;;6.40;;
4311;SDS011;2169;49.086;9.284;2022-09-24T11:56:09;8.43;;;7.53;;
4311;SDS011;2169;49.086;9.284;2022-09-24T11:58:48;6.93;;;6.30;;
4311;SDS011;2169;49.086;9.284;2022-09-24T12:01:19;20.00;;;6.80;;
4311;SDS011;2169;49.086;9.284;2022-09-24T12:03:50;6.97;;;6.27;;
4311;SDS011;2169;49.086;9.284;2022-09-24T12:06:23;8.87;;;5.63;;
4311;SDS011;2169;49.086;9.284;2022-09-24T12:08:58;7.30;;;6.00;;
4311;SDS011;2169;49.086;9.284;2022-09-24T12:11:29;11.57;;;9.33;;
4311;SDS011;2169;49.086;9.284;2022-09-24T12:14:04;7.33;;;6.53;;
4311;SDS011;2169;49.086;9.284;2022-09-24T12:16:42;8.70;;;7.00;;
4311;SDS011;2169;49.086;9.284;2022-09-24T12:19:14;9.43;;;6.67;;
4311;SDS011;2169;49.086;9.284;2022-09-24T12:21:45;23.47;;;14.43;;
4311;SDS011;2169;49.086;9.284;2022-09-24T12:24:17;9.63;;;8.60;;
4311;SDS011;2169;49.086;9.284;2022-09-24T12:26:52;12.63;;;8.90;;
4311;SDS011;2169;49.086;9.284;2022-09-24T12:29:28;11.37;;;7.73;;
4311;SDS011;2169;49.086;9.284;2022-09-24T12:32:18;9.50;;;8.10;;
4311;SDS011;2169;49.086;9.284;2022-09-24T12:35:07;11.77;;;7.37;;
4311;SDS011;2169;49.086;9.284;2022-09-24T12:37:42;14.77;;;8.90;;
4311;SDS011;2169;49.086;9.284;2022-09-24T12:40:20;9.30;;;7.10;;
4311;SDS011;2169;49.086;9.284;2022-09-24T12:43:02;14.70;;;7.73;;
4311;SDS011;2169;49.086;9.284;2022-09-24T12:45:37;8.17;;;7.40;;
4311;SDS011;2169;49.086;9.284;2022-09-24T12:48:05;11.63;;;6.97;;
4311;SDS011;2169;49.086;9.284;2022-09-24T12:50:40;22.93;;;7.90;;
4311;SDS011;2169;49.086;9.284;2022-09-24T12:53:17;11.37;;;8.47;;
4311;SDS011;2169;49.086;9.284;2022-09-24T12:55:50;11.80;;;8.77;;
4311;SDS011;2169;49.086;9.284;2022-09-24T12:58:25;9.13;;;8.33;;
4311;SDS011;2169;49.086;9.284;2022-09-24T13:01:06;11.90;;;8.67;;
4311;SDS011;2169;49.086;9.284;2022-09-24T13:03:37;13.00;;;9.07;;
4311;SDS011;2169;49.086;9.284;2022-09-24T13:06:17;10.57;;;8.03;;
4311;SDS011;2169;49.086;9.284;2022-09-24T13:09:01;19.20;;;8.90;;
4311;SDS011;2169;49.086;9.284;2022-09-24T13:11:31;10.43;;;7.40;;
4311;SDS011;2169;49.086;9.284;2022-09-24T13:14:04;15.50;;;9.13;;
4311;SDS011;2169;49.086;9.284;2022-09-24T13:16:43;10.60;;;9.10;;
4311;SDS011;2169;49.086;9.284;2022-09-24T13:19:20;11.50;;;8.73;;
4311;SDS011;2169;49.086;9.284;2022-09-24T13:21:55;10.60;;;8.33;;
4311;SDS011;2169;49.086;9.284;2022-09-24T13:24:26;13.83;;;8.20;;
4311;SDS011;2169;49.086;9.284;2022-09-24T13:27:16;9.17;;;7.93;;
4311;SDS011;2169;49.086;9.284;2022-09-24T13:29:51;10.90;;;7.70;;
4311;SDS011;2169;49.086;9.284;2022-09-24T13:32:28;9.60;;;8.37;;
4311;SDS011;2169;49.086;9.284;2022-09-24T13:35:02;9.63;;;8.57;;
4311;SDS011;2169;49.086;9.284;2022-09-24T13:37:37;13.40;;;7.43;;
4311;SDS011;2169;49.086;9.284;2022-09-24T13:40:14;13.60;;;9.70;;
4311;SDS011;2169;49.086;9.284;2022-09-24T13:42:46;10.60;;;9.50;;
4311;SDS011;2169;49.086;9.284;2022-09-24T13:45:19;10.00;;;9.00;;
4311;SDS011;2169;49.086;9.284;2022-09-24T13:47:48;9.80;;;8.80;;
4311;SDS011;2169;49.086;9.284;2022-09-24T13:50:21;22.00;;;12.97;;
4311;SDS011;2169;49.086;9.284;2022-09-24T13:52:53;18.27;;;11.07;;
4311;SDS011;2169;49.086;9.284;2022-09-24T13:55:23;19.53;;;11.90;;
4311;SDS011;2169;49.086;9.284;2022-09-24T13:57:56;16.60;;;10.60;;
4311;SDS011;2169;49.086;9.284;2022-09-24T14:00:24;18.00;;;10.10;;
4311;SDS011;2169;49.086;9.284;2022-09-24T14:02:56;11.30;;;9.57;;
4311;SDS011;2169;49.086;9.284;2022-09-24T14:05:27;16.00;;;8.90;;
4311;SDS011;2169;49.086;9.284;2022-09-24T14:07:57;21.60;;;9.47;;
4311;SDS011;2169;49.086;9.284;2022-09-24T14:10:30;16.73;;;10.77;;
4311;SDS011;2169;49.086;9.284;2022-09-24T14:13:14;15.90;;;9.47;;
4311;SDS011;2169;49.086;9.284;2022-09-24T14:15:53;16.40;;;10.00;;
4311;SDS011;2169;49.086;9.284;2022-09-24T14:18:22;8.80;;;7.90;;
4311;SDS011;2169;49.086;9.284;2022-09-24T14:20:52;11.90;;;10.60;;
4311;SDS011;2169;49.086;9.284;2022-09-24T14:23:23;12.37;;;10.63;;
4311;SDS011;2169;49.086;9.284;2022-09-24T14:25:56;8.80;;;7.97;;
4311;SDS011;2169;49.086;9.284;2022-09-24T14:28:26;13.07;;;7.43;;
4311;SDS011;2169;49.086;9.284;2022-09-24T14:30:56;20.30;;;12.07;;
4311;SDS011;2169;49.086;9.284;2022-09-24T14:33:25;10.20;;;8.10;;
4311;SDS011;2169;49.086;9.284;2022-09-24T14:35:57;9.73;;;7.60;;
4311;SDS011;2169;49.086;9.284;2022-09-24T14:38:26;12.77;;;8.00;;
4311;SDS011;2169;49.086;9.284;2022-09-24T14:40:56;10.93;;;8.60;;
4311;SDS011;2169;49.086;9.284;2022-09-24T14:43:28;9.20;;;8.40;;
4311;SDS011;2169;49.086;9.284;2022-09-24T14:46:00;7.93;;;7.10;;
4311;SDS011;2169;49.086;9.284;2022-09-24T14:48:31;7.97;;;6.87;;
4311;SDS011;2169;49.086;9.284;2022-09-24T14:50:59;7.47;;;6.00;;
4311;SDS011;2169;49.086;9.284;2022-09-24T14:53:27;6.93;;;5.80;;
4311;SDS011;2169;49.086;9.284;2022-09-24T14:55:57;8.87;;;6.80;;
4311;SDS011;2169;49.086;9.284;2022-09-24T14:58:30;12.73;;;6.23;;
4311;SDS011;2169;49.086;9.284;2022-09-24T15:01:02;7.57;;;7.00;;
4311;SDS011;2169;49.086;9.284;2022-09-24T15:03:35;9.40;;;6.57;;
4311;SDS011;2169;49.086;9.284;2022-09-24T15:06:05;11.50;;;8.07;;
4311;SDS011;2169;49.086;9.284;2022-09-24T15:08:43;8.97;;;7.63;;
4311;SDS011;2169;49.086;9.284;2022-09-24T15:11:17;15.17;;;7.93;;
4311;SDS011;2169;49.086;9.284;2022-09-24T15:13:56;10.43;;;6.00;;
4311;SDS011;2169;49.086;9.284;2022-09-24T15:16:26;16.73;;;6.07;;
4311;SDS011;2169;49.086;9.284;2022-09-24T15:18:56;9.60;;;6.80;;
4311;SDS011;2169;49.086;9.284;2022-09-24T15:21:38;8.40;;;7.60;;
4311;SDS011;2169;49.086;9.284;2022-09-24T15:24:06;11.40;;;6.70;;
4311;SDS011;2169;49.086;9.284;2022-09-24T15:26:34;10.83;;;7.67;;
4311;SDS011;2169;49.086;9.284;2022-09-24T15:29:06;11.00;;;7.57;;
4311;SDS011;2169;49.086;9.284;2022-09-24T15:31:41;7.33;;;6.73;;
4311;SDS011;2169;49.086;9.284;2022-09-24T15:34:11;9.70;;;5.80;;
4311;SDS011;2169;49.086;9.284;2022-09-24T15:36:38;7.90;;;6.90;;
4311;SDS011;2169;49.086;9.284;2022-09-24T15:39:08;6.60;;;5.87;;
4311;SDS011;2169;49.086;9.284;2022-09-24T15:41:35;6.97;;;6.33;;
4311;SDS011;2169;49.086;9.284;2022-09-24T15:44:19;12.40;;;6.80;;
4311;SDS011;2169;49.086;9.284;2022-09-24T15:46:48;8.13;;;6.87;;
4311;SDS011;2169;49.086;9.284;2022-09-24T15:49:16;10.87;;;7.60;;
4311;SDS011;2169;49.086;9.284;2022-09-24T15:51:47;11.20;;;7.20;;
4311;SDS011;2169;49.086;9.284;2022-09-24T15:54:18;11.00;;;7.63;;